sensor_id;sensor_type;location;lat;lon;timestamp;P1;durP1;ratioP1;P2;durP2;ratioP2
45764;SDS011;31474;45.332;10.230;2022-09-23T00:00:32;3.55;;;3.00;;
45764;SDS011;31474;45.332;10.230;2022-09-23T00:02:58;5.10;;;3.05;;
45764;SDS011;31474;45.332;10.230;2022-09-23T00:05:26;3.30;;;3.00;;
45764;SDS011;31474;45.332;10.230;2022-09-23T00:07:53;3.47;;;2.80;;
45764;SDS011;31474;45.332;10.230;2022-09-23T00:10:20;5.60;;;3.75;;
45764;SDS011;31474;45.332;10.230;2022-09-23T00:12:46;6.53;;;3.22;;
45764;SDS011;31474;45.332;10.230;2022-09-23T00:15:11;4.95;;;3.70;;
45764;SDS011;31474;45.332;10.230;2022-09-23T00:17:37;6.10;;;3.53;;
45764;SDS011;31474;45.332;10.230;2022-09-23T00:20:05;5.07;;;3.65;;
45764;SDS011;31474;45.332;10.230;2022-09-23T00:22:33;5.85;;;3.65;;
45764;SDS011;31474;45.332;10.230;2022-09-23T00:25:01;5.05;;;3.38;;
45764;SDS011;31474;45.332;10.230;2022-09-23T00:27:30;4.60;;;3.50;;
45764;SDS011;31474;45.332;10.230;2022-09-23T00:29:57;3.78;;;2.92;;
45764;SDS011;31474;45.332;10.230;2022-09-23T00:32:24;4.55;;;2.95;;
45764;SDS011;31474;45.332;10.230;2022-09-23T00:34:50;4.95;;;3.80;;
45764;SDS011;31474;45.332;10.230;2022-09-23T00:37:16;7.35;;;3.55;;
45764;SDS011;31474;45.332;10.230;2022-09-23T00:39:42;5.40;;;3.25;;
45764;SDS011;31474;45.332;10.230;2022-09-23T00:42:16;6.28;;;3.40;;
45764;SDS011;31474;45.332;10.230;2022-09-23T00:44:48;6.28;;;4.07;;
45764;SDS011;31474;45.332;10.230;2022-09-23T00:50:14;5.25;;;3.00;;
45764;SDS011;31474;45.332;10.230;2022-09-23T00:52:52;4.68;;;3.50;;
45764;SDS011;31474;45.332;10.230;2022-09-23T00:55:24;5.03;;;4.05;;
45764;SDS011;31474;45.332;10.230;2022-09-23T00:57:54;5.22;;;3.33;;
45764;SDS011;31474;45.332;10.230;2022-09-23T01:00:23;5.15;;;3.55;;
45764;SDS011;31474;45.332;10.230;2022-09-23T01:02:49;4.55;;;3.88;;
45764;SDS011;31474;45.332;10.230;2022-09-23T01:05:15;5.00;;;3.47;;
45764;SDS011;31474;45.332;10.230;2022-09-23T01:07:42;5.72;;;3.58;;
45764;SDS011;31474;45.332;10.230;2022-09-23T01:10:08;4.80;;;3.13;;
45764;SDS011;31474;45.332;10.230;2022-09-23T01:12:52;4.72;;;3.33;;
45764;SDS011;31474;45.332;10.230;2022-09-23T01:15:48;4.78;;;3.67;;
45764;SDS011;31474;45.332;10.230;2022-09-23T01:19:00;4.78;;;4.03;;
45764;SDS011;31474;45.332;10.230;2022-09-23T01:21:43;3.80;;;3.22;;
45764;SDS011;31474;45.332;10.230;2022-09-23T01:40:19;5.35;;;3.40;;
45764;SDS011;31474;45.332;10.230;2022-09-23T01:45:47;4.25;;;3.30;;
45764;SDS011;31474;45.332;10.230;2022-09-23T01:48:22;5.88;;;3.38;;
45764;SDS011;31474;45.332;10.230;2022-09-23T01:56:11;4.68;;;3.83;;
45764;SDS011;31474;45.332;10.230;2022-09-23T02:01:34;3.85;;;3.42;;
45764;SDS011;31474;45.332;10.230;2022-09-23T02:04:24;5.88;;;3.30;;
45764;SDS011;31474;45.332;10.230;2022-09-23T02:07:03;5.45;;;3.58;;
45764;SDS011;31474;45.332;10.230;2022-09-23T02:09:35;5.80;;;3.70;;
45764;SDS011;31474;45.332;10.230;2022-09-23T02:12:07;6.13;;;4.13;;
45764;SDS011;31474;45.332;10.230;2022-09-23T02:14:52;7.50;;;3.88;;
45764;SDS011;31474;45.332;10.230;2022-09-23T02:17:31;4.70;;;3.33;;
45764;SDS011;31474;45.332;10.230;2022-09-23T02:20:04;4.68;;;3.60;;
45764;SDS011;31474;45.332;10.230;2022-09-23T02:22:33;5.03;;;4.05;;
45764;SDS011;31474;45.332;10.230;2022-09-23T02:25:15;5.60;;;3.85;;
45764;SDS011;31474;45.332;10.230;2022-09-23T02:30:21;5.40;;;3.97;;
45764;SDS011;31474;45.332;10.230;2022-09-23T02:35:23;11.32;;;5.05;;
45764;SDS011;31474;45.332;10.230;2022-09-23T02:43:24;5.68;;;3.60;;
45764;SDS011;31474;45.332;10.230;2022-09-23T02:45:57;4.53;;;3.88;;
45764;SDS011;31474;45.332;10.230;2022-09-23T02:48:47;4.28;;;3.88;;
45764;SDS011;31474;45.332;10.230;2022-09-23T02:51:15;4.15;;;3.63;;
45764;SDS011;31474;45.332;10.230;2022-09-23T02:53:41;4.50;;;4.05;;
45764;SDS011;31474;45.332;10.230;2022-09-23T02:56:40;4.00;;;3.60;;
45764;SDS011;31474;45.332;10.230;2022-09-23T02:58:59;4.60;;;3.78;;
45764;SDS011;31474;45.332;10.230;2022-09-23T03:09:03;5.38;;;4.22;;
45764;SDS011;31474;45.332;10.230;2022-09-23T03:11:37;4.88;;;4.30;;
45764;SDS011;31474;45.332;10.230;2022-09-23T03:14:13;5.38;;;4.10;;
45764;SDS011;31474;45.332;10.230;2022-09-23T03:22:13;7.78;;;4.13;;
45764;SDS011;31474;45.332;10.230;2022-09-23T03:24:51;5.53;;;4.05;;
45764;SDS011;31474;45.332;10.230;2022-09-23T03:27:21;5.10;;;4.32;;
45764;SDS011;31474;45.332;10.230;2022-09-23T03:29:51;5.70;;;4.38;;
45764;SDS011;31474;45.332;10.230;2022-09-23T03:32:19;8.02;;;4.20;;
45764;SDS011;31474;45.332;10.230;2022-09-23T03:34:48;7.47;;;4.50;;
45764;SDS011;31474;45.332;10.230;2022-09-23T03:37:23;6.53;;;4.75;;
45764;SDS011;31474;45.332;10.230;2022-09-23T03:40:06;5.75;;;4.63;;
45764;SDS011;31474;45.332;10.230;2022-09-23T03:42:43;8.82;;;6.25;;
45764;SDS011;31474;45.332;10.230;2022-09-23T03:45:13;5.35;;;4.75;;
45764;SDS011;31474;45.332;10.230;2022-09-23T03:47:42;8.13;;;5.07;;
45764;SDS011;31474;45.332;10.230;2022-09-23T03:50:09;6.97;;;4.20;;
45764;SDS011;31474;45.332;10.230;2022-09-23T03:52:37;6.88;;;3.90;;
45764;SDS011;31474;45.332;10.230;2022-09-23T03:55:04;5.40;;;4.13;;
45764;SDS011;31474;45.332;10.230;2022-09-23T03:57:30;8.48;;;4.82;;
45764;SDS011;31474;45.332;10.230;2022-09-23T03:59:56;5.97;;;4.85;;
45764;SDS011;31474;45.332;10.230;2022-09-23T04:02:21;5.72;;;4.05;;
45764;SDS011;31474;45.332;10.230;2022-09-23T04:04:47;5.00;;;4.10;;
45764;SDS011;31474;45.332;10.230;2022-09-23T04:07:13;10.35;;;5.88;;
45764;SDS011;31474;45.332;10.230;2022-09-23T04:09:39;4.97;;;4.47;;
45764;SDS011;31474;45.332;10.230;2022-09-23T04:12:05;6.10;;;4.50;;
45764;SDS011;31474;45.332;10.230;2022-09-23T04:14:31;8.15;;;4.70;;
45764;SDS011;31474;45.332;10.230;2022-09-23T04:16:56;6.53;;;5.15;;
45764;SDS011;31474;45.332;10.230;2022-09-23T04:19:22;8.63;;;5.47;;
45764;SDS011;31474;45.332;10.230;2022-09-23T04:21:48;7.93;;;5.20;;
45764;SDS011;31474;45.332;10.230;2022-09-23T04:24:14;8.77;;;4.53;;
45764;SDS011;31474;45.332;10.230;2022-09-23T04:26:41;7.47;;;4.95;;
45764;SDS011;31474;45.332;10.230;2022-09-23T04:29:07;10.02;;;5.07;;
45764;SDS011;31474;45.332;10.230;2022-09-23T04:31:32;6.45;;;5.35;;
45764;SDS011;31474;45.332;10.230;2022-09-23T04:33:59;8.75;;;5.40;;
45764;SDS011;31474;45.332;10.230;2022-09-23T04:36:24;6.78;;;5.20;;
45764;SDS011;31474;45.332;10.230;2022-09-23T04:38:50;7.38;;;5.10;;
45764;SDS011;31474;45.332;10.230;2022-09-23T04:41:17;10.93;;;4.97;;
45764;SDS011;31474;45.332;10.230;2022-09-23T04:43:43;8.90;;;5.22;;
45764;SDS011;31474;45.332;10.230;2022-09-23T04:46:11;7.47;;;5.10;;
45764;SDS011;31474;45.332;10.230;2022-09-23T04:48:38;7.60;;;5.72;;
45764;SDS011;31474;45.332;10.230;2022-09-23T04:51:12;8.60;;;5.43;;
45764;SDS011;31474;45.332;10.230;2022-09-23T04:53:43;7.05;;;4.90;;
45764;SDS011;31474;45.332;10.230;2022-09-23T04:56:11;9.13;;;5.45;;
45764;SDS011;31474;45.332;10.230;2022-09-23T04:58:41;5.70;;;4.95;;
45764;SDS011;31474;45.332;10.230;2022-09-23T05:03:40;6.93;;;5.07;;
45764;SDS011;31474;45.332;10.230;2022-09-23T05:06:07;7.15;;;5.13;;
45764;SDS011;31474;45.332;10.230;2022-09-23T05:08:34;8.38;;;4.63;;
45764;SDS011;31474;45.332;10.230;2022-09-23T05:11:00;7.97;;;5.70;;
45764;SDS011;31474;45.332;10.230;2022-09-23T05:13:31;12.60;;;6.45;;
45764;SDS011;31474;45.332;10.230;2022-09-23T05:15:58;7.68;;;6.30;;
45764;SDS011;31474;45.332;10.230;2022-09-23T05:18:25;11.68;;;6.57;;
45764;SDS011;31474;45.332;10.230;2022-09-23T05:20:53;11.38;;;7.00;;
45764;SDS011;31474;45.332;10.230;2022-09-23T05:23:19;9.27;;;5.70;;
45764;SDS011;31474;45.332;10.230;2022-09-23T05:25:45;7.78;;;5.65;;
45764;SDS011;31474;45.332;10.230;2022-09-23T05:28:12;12.90;;;7.03;;
45764;SDS011;31474;45.332;10.230;2022-09-23T05:30:42;10.20;;;6.32;;
45764;SDS011;31474;45.332;10.230;2022-09-23T05:33:08;10.73;;;6.45;;
45764;SDS011;31474;45.332;10.230;2022-09-23T05:35:34;17.15;;;7.18;;
45764;SDS011;31474;45.332;10.230;2022-09-23T05:37:59;10.40;;;6.43;;
45764;SDS011;31474;45.332;10.230;2022-09-23T05:40:25;10.45;;;6.65;;
45764;SDS011;31474;45.332;10.230;2022-09-23T05:42:51;8.55;;;6.03;;
45764;SDS011;31474;45.332;10.230;2022-09-23T05:45:16;11.27;;;6.55;;
45764;SDS011;31474;45.332;10.230;2022-09-23T05:47:42;12.27;;;7.30;;
45764;SDS011;31474;45.332;10.230;2022-09-23T05:50:08;9.23;;;6.70;;
45764;SDS011;31474;45.332;10.230;2022-09-23T05:52:34;12.10;;;7.18;;
45764;SDS011;31474;45.332;10.230;2022-09-23T05:55:00;13.85;;;7.70;;
45764;SDS011;31474;45.332;10.230;2022-09-23T05:57:26;15.15;;;7.28;;
45764;SDS011;31474;45.332;10.230;2022-09-23T05:59:52;9.80;;;6.13;;
45764;SDS011;31474;45.332;10.230;2022-09-23T06:02:17;10.55;;;6.85;;
45764;SDS011;31474;45.332;10.230;2022-09-23T06:04:43;13.90;;;7.97;;
45764;SDS011;31474;45.332;10.230;2022-09-23T06:07:09;11.93;;;7.10;;
45764;SDS011;31474;45.332;10.230;2022-09-23T06:09:35;8.60;;;6.50;;
45764;SDS011;31474;45.332;10.230;2022-09-23T06:12:01;11.30;;;7.03;;
45764;SDS011;31474;45.332;10.230;2022-09-23T06:14:27;12.52;;;6.50;;
45764;SDS011;31474;45.332;10.230;2022-09-23T06:16:53;7.50;;;6.22;;
45764;SDS011;31474;45.332;10.230;2022-09-23T06:19:18;7.65;;;6.47;;
45764;SDS011;31474;45.332;10.230;2022-09-23T06:21:44;11.15;;;5.95;;
45764;SDS011;31474;45.332;10.230;2022-09-23T06:24:09;9.98;;;5.72;;
45764;SDS011;31474;45.332;10.230;2022-09-23T06:26:36;6.28;;;5.47;;
45764;SDS011;31474;45.332;10.230;2022-09-23T06:29:02;15.68;;;5.82;;
45764;SDS011;31474;45.332;10.230;2022-09-23T06:31:33;7.72;;;6.72;;
45764;SDS011;31474;45.332;10.230;2022-09-23T06:33:59;9.82;;;5.80;;
45764;SDS011;31474;45.332;10.230;2022-09-23T06:36:24;8.93;;;6.00;;
45764;SDS011;31474;45.332;10.230;2022-09-23T06:38:50;8.80;;;5.63;;
45764;SDS011;31474;45.332;10.230;2022-09-23T06:41:16;8.95;;;6.38;;
45764;SDS011;31474;45.332;10.230;2022-09-23T06:43:42;8.15;;;5.50;;
45764;SDS011;31474;45.332;10.230;2022-09-23T06:46:08;12.63;;;5.93;;
45764;SDS011;31474;45.332;10.230;2022-09-23T06:48:37;13.40;;;6.28;;
45764;SDS011;31474;45.332;10.230;2022-09-23T06:51:04;9.95;;;6.20;;
45764;SDS011;31474;45.332;10.230;2022-09-23T06:53:31;10.38;;;5.50;;
45764;SDS011;31474;45.332;10.230;2022-09-23T06:56:01;11.27;;;6.40;;
45764;SDS011;31474;45.332;10.230;2022-09-23T06:58:35;10.65;;;6.20;;
45764;SDS011;31474;45.332;10.230;2022-09-23T07:01:07;11.95;;;6.80;;
45764;SDS011;31474;45.332;10.230;2022-09-23T07:03:39;15.32;;;7.40;;
45764;SDS011;31474;45.332;10.230;2022-09-23T07:06:05;18.58;;;7.63;;
45764;SDS011;31474;45.332;10.230;2022-09-23T07:08:31;15.25;;;7.32;;
45764;SDS011;31474;45.332;10.230;2022-09-23T07:10:59;17.05;;;7.32;;
45764;SDS011;31474;45.332;10.230;2022-09-23T07:13:26;13.95;;;7.00;;
45764;SDS011;31474;45.332;10.230;2022-09-23T07:15:54;14.60;;;7.35;;
45764;SDS011;31474;45.332;10.230;2022-09-23T07:18:22;11.25;;;6.40;;
45764;SDS011;31474;45.332;10.230;2022-09-23T07:20:49;11.15;;;6.60;;
45764;SDS011;31474;45.332;10.230;2022-09-23T07:23:16;9.73;;;5.85;;
45764;SDS011;31474;45.332;10.230;2022-09-23T07:25:42;10.45;;;5.45;;
45764;SDS011;31474;45.332;10.230;2022-09-23T07:28:08;8.65;;;5.60;;
45764;SDS011;31474;45.332;10.230;2022-09-23T07:30:35;10.23;;;5.05;;
45764;SDS011;31474;45.332;10.230;2022-09-23T07:33:02;6.80;;;4.95;;
45764;SDS011;31474;45.332;10.230;2022-09-23T07:35:28;6.28;;;4.68;;
45764;SDS011;31474;45.332;10.230;2022-09-23T07:37:54;10.63;;;5.20;;
45764;SDS011;31474;45.332;10.230;2022-09-23T07:40:19;11.73;;;5.18;;
45764;SDS011;31474;45.332;10.230;2022-09-23T07:42:45;10.77;;;3.92;;
45764;SDS011;31474;45.332;10.230;2022-09-23T07:45:11;7.18;;;5.43;;
45764;SDS011;31474;45.332;10.230;2022-09-23T07:47:37;9.32;;;3.47;;
45764;SDS011;31474;45.332;10.230;2022-09-23T07:50:07;6.53;;;3.90;;
45764;SDS011;31474;45.332;10.230;2022-09-23T07:52:36;4.25;;;3.20;;
45764;SDS011;31474;45.332;10.230;2022-09-23T07:55:03;3.35;;;3.05;;
45764;SDS011;31474;45.332;10.230;2022-09-23T07:57:29;5.03;;;3.20;;
45764;SDS011;31474;45.332;10.230;2022-09-23T07:59:55;4.43;;;3.42;;
45764;SDS011;31474;45.332;10.230;2022-09-23T08:02:21;3.33;;;3.00;;
45764;SDS011;31474;45.332;10.230;2022-09-23T08:04:47;6.63;;;3.55;;
45764;SDS011;31474;45.332;10.230;2022-09-23T08:07:13;9.48;;;3.72;;
45764;SDS011;31474;45.332;10.230;2022-09-23T08:09:40;12.18;;;3.38;;
45764;SDS011;31474;45.332;10.230;2022-09-23T08:12:12;9.95;;;3.40;;
45764;SDS011;31474;45.332;10.230;2022-09-23T08:14:40;4.43;;;3.05;;
45764;SDS011;31474;45.332;10.230;2022-09-23T08:17:06;4.05;;;3.30;;
45764;SDS011;31474;45.332;10.230;2022-09-23T08:19:32;3.28;;;2.90;;
45764;SDS011;31474;45.332;10.230;2022-09-23T08:21:58;4.35;;;3.95;;
45764;SDS011;31474;45.332;10.230;2022-09-23T08:24:24;5.68;;;4.35;;
45764;SDS011;31474;45.332;10.230;2022-09-23T08:26:50;4.72;;;3.70;;
45764;SDS011;31474;45.332;10.230;2022-09-23T08:29:19;5.93;;;4.07;;
45764;SDS011;31474;45.332;10.230;2022-09-23T08:31:46;6.82;;;4.13;;
45764;SDS011;31474;45.332;10.230;2022-09-23T08:34:14;5.78;;;4.20;;
45764;SDS011;31474;45.332;10.230;2022-09-23T08:36:43;4.53;;;3.88;;
45764;SDS011;31474;45.332;10.230;2022-09-23T08:39:14;4.82;;;3.65;;
45764;SDS011;31474;45.332;10.230;2022-09-23T08:50:22;7.05;;;3.17;;
45764;SDS011;31474;45.332;10.230;2022-09-23T08:55:42;6.68;;;3.08;;
45764;SDS011;31474;45.332;10.230;2022-09-23T08:58:30;6.32;;;3.38;;
45764;SDS011;31474;45.332;10.230;2022-09-23T09:03:40;5.43;;;3.80;;
45764;SDS011;31474;45.332;10.230;2022-09-23T09:06:16;4.10;;;3.13;;
45764;SDS011;31474;45.332;10.230;2022-09-23T09:08:50;4.10;;;3.10;;
45764;SDS011;31474;45.332;10.230;2022-09-23T09:11:22;6.43;;;3.50;;
45764;SDS011;31474;45.332;10.230;2022-09-23T09:17:01;4.20;;;3.17;;
45764;SDS011;31474;45.332;10.230;2022-09-23T09:22:23;2.20;;;2.00;;
45764;SDS011;31474;45.332;10.230;2022-09-23T09:25:05;1.65;;;1.48;;
45764;SDS011;31474;45.332;10.230;2022-09-23T09:27:43;3.42;;;2.22;;
45764;SDS011;31474;45.332;10.230;2022-09-23T09:30:11;4.65;;;2.15;;
45764;SDS011;31474;45.332;10.230;2022-09-23T09:35:22;4.85;;;2.05;;
45764;SDS011;31474;45.332;10.230;2022-09-23T09:37:59;2.13;;;1.92;;
45764;SDS011;31474;45.332;10.230;2022-09-23T09:40:25;2.90;;;2.00;;
45764;SDS011;31474;45.332;10.230;2022-09-23T09:42:51;2.10;;;1.90;;
45764;SDS011;31474;45.332;10.230;2022-09-23T09:48:09;2.60;;;1.95;;
45764;SDS011;31474;45.332;10.230;2022-09-23T09:50:40;3.55;;;2.03;;
45764;SDS011;31474;45.332;10.230;2022-09-23T09:55:46;1.83;;;1.70;;
45764;SDS011;31474;45.332;10.230;2022-09-23T09:59:14;1.75;;;1.65;;
45764;SDS011;31474;45.332;10.230;2022-09-23T10:01:21;2.80;;;2.47;;
45764;SDS011;31474;45.332;10.230;2022-09-23T10:03:48;3.40;;;2.15;;
45764;SDS011;31474;45.332;10.230;2022-09-23T10:06:20;3.38;;;2.00;;
45764;SDS011;31474;45.332;10.230;2022-09-23T10:11:26;2.58;;;1.35;;
45764;SDS011;31474;45.332;10.230;2022-09-23T10:16:24;1.50;;;1.40;;
45764;SDS011;31474;45.332;10.230;2022-09-23T10:18:51;2.40;;;1.63;;
45764;SDS011;31474;45.332;10.230;2022-09-23T10:21:21;2.95;;;1.40;;
45764;SDS011;31474;45.332;10.230;2022-09-23T10:23:51;1.52;;;1.40;;
45764;SDS011;31474;45.332;10.230;2022-09-23T10:26:29;2.70;;;1.63;;
45764;SDS011;31474;45.332;10.230;2022-09-23T10:32:17;2.35;;;1.77;;
45764;SDS011;31474;45.332;10.230;2022-09-23T10:34:44;1.60;;;1.13;;
45764;SDS011;31474;45.332;10.230;2022-09-23T10:37:13;2.03;;;1.33;;
45764;SDS011;31474;45.332;10.230;2022-09-23T10:39:48;2.15;;;1.40;;
45764;SDS011;31474;45.332;10.230;2022-09-23T10:42:49;1.95;;;1.25;;
45764;SDS011;31474;45.332;10.230;2022-09-23T10:45:47;1.80;;;1.20;;
45764;SDS011;31474;45.332;10.230;2022-09-23T10:51:43;2.85;;;1.27;;
45764;SDS011;31474;45.332;10.230;2022-09-23T10:56:53;3.28;;;1.95;;
45764;SDS011;31474;45.332;10.230;2022-09-23T11:15:43;2.78;;;1.92;;
45764;SDS011;31474;45.332;10.230;2022-09-23T11:27:00;2.38;;;1.85;;
45764;SDS011;31474;45.332;10.230;2022-09-23T11:37:15;2.63;;;2.42;;
45764;SDS011;31474;45.332;10.230;2022-09-23T11:39:50;2.90;;;2.25;;
45764;SDS011;31474;45.332;10.230;2022-09-23T11:42:21;3.22;;;2.17;;
45764;SDS011;31474;45.332;10.230;2022-09-23T11:45:04;2.70;;;2.50;;
45764;SDS011;31474;45.332;10.230;2022-09-23T11:47:39;3.90;;;2.90;;
45764;SDS011;31474;45.332;10.230;2022-09-23T11:53:08;3.67;;;2.28;;
45764;SDS011;31474;45.332;10.230;2022-09-23T11:55:45;6.50;;;2.90;;
45764;SDS011;31474;45.332;10.230;2022-09-23T11:58:21;5.47;;;2.85;;
45764;SDS011;31474;45.332;10.230;2022-09-23T12:01:04;4.03;;;3.10;;
45764;SDS011;31474;45.332;10.230;2022-09-23T12:06:05;3.50;;;2.80;;
45764;SDS011;31474;45.332;10.230;2022-09-23T12:08:36;5.15;;;3.30;;
45764;SDS011;31474;45.332;10.230;2022-09-23T12:19:22;3.90;;;3.13;;
45764;SDS011;31474;45.332;10.230;2022-09-23T12:22:12;4.10;;;3.70;;
45764;SDS011;31474;45.332;10.230;2022-09-23T12:27:34;3.70;;;3.40;;
45764;SDS011;31474;45.332;10.230;2022-09-23T12:32:41;5.30;;;3.00;;
45764;SDS011;31474;45.332;10.230;2022-09-23T12:37:52;3.55;;;3.10;;
45764;SDS011;31474;45.332;10.230;2022-09-23T12:42:52;3.38;;;3.08;;
45764;SDS011;31474;45.332;10.230;2022-09-23T12:45:39;2.90;;;2.47;;
45764;SDS011;31474;45.332;10.230;2022-09-23T12:50:46;4.57;;;2.85;;
45764;SDS011;31474;45.332;10.230;2022-09-23T12:56:16;3.10;;;2.65;;
45764;SDS011;31474;45.332;10.230;2022-09-23T13:03:40;3.25;;;2.88;;
45764;SDS011;31474;45.332;10.230;2022-09-23T13:09:40;3.40;;;3.10;;
45764;SDS011;31474;45.332;10.230;2022-09-23T13:12:15;3.55;;;2.70;;
45764;SDS011;31474;45.332;10.230;2022-09-23T13:14:45;5.50;;;2.67;;
45764;SDS011;31474;45.332;10.230;2022-09-23T13:17:30;5.53;;;2.60;;
45764;SDS011;31474;45.332;10.230;2022-09-23T13:20:02;3.30;;;2.90;;
45764;SDS011;31474;45.332;10.230;2022-09-23T13:22:39;3.40;;;3.05;;
45764;SDS011;31474;45.332;10.230;2022-09-23T13:25:19;2.67;;;2.47;;
45764;SDS011;31474;45.332;10.230;2022-09-23T13:27:49;3.63;;;3.03;;
45764;SDS011;31474;45.332;10.230;2022-09-23T13:30:22;4.95;;;3.35;;
45764;SDS011;31474;45.332;10.230;2022-09-23T13:35:59;4.57;;;2.88;;
45764;SDS011;31474;45.332;10.230;2022-09-23T13:38:30;5.15;;;3.25;;
45764;SDS011;31474;45.332;10.230;2022-09-23T13:41:03;5.13;;;3.88;;
45764;SDS011;31474;45.332;10.230;2022-09-23T13:46:03;3.30;;;2.95;;
45764;SDS011;31474;45.332;10.230;2022-09-23T13:48:33;4.22;;;2.95;;
45764;SDS011;31474;45.332;10.230;2022-09-23T13:51:02;4.35;;;3.78;;
45764;SDS011;31474;45.332;10.230;2022-09-23T13:53:34;4.38;;;3.90;;
45764;SDS011;31474;45.332;10.230;2022-09-23T13:56:13;3.58;;;3.28;;
45764;SDS011;31474;45.332;10.230;2022-09-23T13:58:40;4.65;;;3.80;;
45764;SDS011;31474;45.332;10.230;2022-09-23T14:04:21;4.53;;;3.00;;
45764;SDS011;31474;45.332;10.230;2022-09-23T14:06:48;6.85;;;3.80;;
45764;SDS011;31474;45.332;10.230;2022-09-23T14:09:14;4.85;;;3.80;;
45764;SDS011;31474;45.332;10.230;2022-09-23T14:11:40;9.65;;;3.70;;
45764;SDS011;31474;45.332;10.230;2022-09-23T14:14:06;4.05;;;3.30;;
45764;SDS011;31474;45.332;10.230;2022-09-23T14:16:34;3.65;;;3.05;;
45764;SDS011;31474;45.332;10.230;2022-09-23T14:19:04;5.75;;;3.17;;
45764;SDS011;31474;45.332;10.230;2022-09-23T14:26:40;5.93;;;4.20;;
45764;SDS011;31474;45.332;10.230;2022-09-23T14:29:14;4.95;;;3.95;;
45764;SDS011;31474;45.332;10.230;2022-09-23T14:31:52;3.88;;;3.50;;
45764;SDS011;31474;45.332;10.230;2022-09-23T14:40:16;5.32;;;4.28;;
45764;SDS011;31474;45.332;10.230;2022-09-23T14:42:48;3.97;;;3.50;;
45764;SDS011;31474;45.332;10.230;2022-09-23T14:45:19;4.45;;;3.78;;
45764;SDS011;31474;45.332;10.230;2022-09-23T14:47:48;5.05;;;3.88;;
45764;SDS011;31474;45.332;10.230;2022-09-23T14:50:24;5.10;;;3.75;;
45764;SDS011;31474;45.332;10.230;2022-09-23T14:53:05;4.97;;;4.00;;
45764;SDS011;31474;45.332;10.230;2022-09-23T14:55:53;4.40;;;4.03;;
45764;SDS011;31474;45.332;10.230;2022-09-23T14:58:47;5.05;;;4.10;;
45764;SDS011;31474;45.332;10.230;2022-09-23T15:06:39;9.77;;;4.00;;
45764;SDS011;31474;45.332;10.230;2022-09-23T15:09:54;5.03;;;3.97;;
45764;SDS011;31474;45.332;10.230;2022-09-23T15:12:04;5.93;;;4.80;;
45764;SDS011;31474;45.332;10.230;2022-09-23T15:14:43;7.90;;;4.50;;
45764;SDS011;31474;45.332;10.230;2022-09-23T15:17:16;6.18;;;4.13;;
45764;SDS011;31474;45.332;10.230;2022-09-23T15:19:50;5.70;;;4.10;;
45764;SDS011;31474;45.332;10.230;2022-09-23T15:22:44;6.78;;;4.00;;
45764;SDS011;31474;45.332;10.230;2022-09-23T15:27:40;6.45;;;3.95;;
45764;SDS011;31474;45.332;10.230;2022-09-23T15:30:16;24.10;;;4.63;;
45764;SDS011;31474;45.332;10.230;2022-09-23T15:32:43;11.60;;;4.70;;
45764;SDS011;31474;45.332;10.230;2022-09-23T15:35:17;5.72;;;4.85;;
45764;SDS011;31474;45.332;10.230;2022-09-23T15:37:49;4.80;;;4.30;;
45764;SDS011;31474;45.332;10.230;2022-09-23T15:40:20;5.93;;;4.15;;
45764;SDS011;31474;45.332;10.230;2022-09-23T15:42:54;6.93;;;4.82;;
45764;SDS011;31474;45.332;10.230;2022-09-23T15:45:40;5.47;;;4.55;;
45764;SDS011;31474;45.332;10.230;2022-09-23T15:48:10;9.57;;;4.45;;
45764;SDS011;31474;45.332;10.230;2022-09-23T15:50:38;9.23;;;4.97;;
45764;SDS011;31474;45.332;10.230;2022-09-23T15:53:08;5.22;;;4.75;;
45764;SDS011;31474;45.332;10.230;2022-09-23T15:55:37;9.35;;;5.13;;
45764;SDS011;31474;45.332;10.230;2022-09-23T15:58:03;4.60;;;4.18;;
45764;SDS011;31474;45.332;10.230;2022-09-23T16:00:28;4.95;;;4.30;;
45764;SDS011;31474;45.332;10.230;2022-09-23T16:02:54;8.43;;;5.20;;
45764;SDS011;31474;45.332;10.230;2022-09-23T16:05:27;8.05;;;5.05;;
45764;SDS011;31474;45.332;10.230;2022-09-23T16:08:00;6.43;;;4.30;;
45764;SDS011;31474;45.332;10.230;2022-09-23T16:10:26;4.85;;;4.35;;
45764;SDS011;31474;45.332;10.230;2022-09-23T16:12:53;4.82;;;4.30;;
45764;SDS011;31474;45.332;10.230;2022-09-23T16:15:22;11.15;;;4.93;;
45764;SDS011;31474;45.332;10.230;2022-09-23T16:17:48;5.03;;;4.53;;
45764;SDS011;31474;45.332;10.230;2022-09-23T16:20:14;8.30;;;4.45;;
45764;SDS011;31474;45.332;10.230;2022-09-23T16:23:03;5.68;;;4.50;;
45764;SDS011;31474;45.332;10.230;2022-09-23T16:25:30;4.75;;;4.25;;
45764;SDS011;31474;45.332;10.230;2022-09-23T16:28:00;8.02;;;4.25;;
45764;SDS011;31474;45.332;10.230;2022-09-23T16:30:27;7.53;;;4.60;;
45764;SDS011;31474;45.332;10.230;2022-09-23T16:32:54;7.88;;;3.70;;
45764;SDS011;31474;45.332;10.230;2022-09-23T16:35:20;8.15;;;4.38;;
45764;SDS011;31474;45.332;10.230;2022-09-23T16:37:48;6.57;;;3.47;;
45764;SDS011;31474;45.332;10.230;2022-09-23T16:40:15;5.45;;;4.15;;
45764;SDS011;31474;45.332;10.230;2022-09-23T16:42:46;6.72;;;4.22;;
45764;SDS011;31474;45.332;10.230;2022-09-23T16:45:13;5.85;;;3.88;;
45764;SDS011;31474;45.332;10.230;2022-09-23T16:47:42;6.55;;;4.80;;
45764;SDS011;31474;45.332;10.230;2022-09-23T16:50:10;7.75;;;4.00;;
45764;SDS011;31474;45.332;10.230;2022-09-23T16:52:36;7.13;;;4.40;;
45764;SDS011;31474;45.332;10.230;2022-09-23T16:55:02;5.75;;;4.25;;
45764;SDS011;31474;45.332;10.230;2022-09-23T16:57:28;8.43;;;4.25;;
45764;SDS011;31474;45.332;10.230;2022-09-23T16:59:54;7.80;;;4.15;;
45764;SDS011;31474;45.332;10.230;2022-09-23T17:02:38;10.05;;;4.10;;
45764;SDS011;31474;45.332;10.230;2022-09-23T17:05:22;13.05;;;4.40;;
45764;SDS011;31474;45.332;10.230;2022-09-23T17:07:48;9.13;;;4.65;;
45764;SDS011;31474;45.332;10.230;2022-09-23T17:10:13;9.13;;;3.90;;
45764;SDS011;31474;45.332;10.230;2022-09-23T17:12:42;8.13;;;4.43;;
45764;SDS011;31474;45.332;10.230;2022-09-23T17:15:08;5.10;;;4.22;;
45764;SDS011;31474;45.332;10.230;2022-09-23T17:17:35;8.70;;;4.40;;
45764;SDS011;31474;45.332;10.230;2022-09-23T17:20:03;28.17;;;6.57;;
45764;SDS011;31474;45.332;10.230;2022-09-23T17:22:33;7.78;;;4.45;;
45764;SDS011;31474;45.332;10.230;2022-09-23T17:25:20;11.45;;;4.85;;
45764;SDS011;31474;45.332;10.230;2022-09-23T17:27:51;9.10;;;5.63;;
45764;SDS011;31474;45.332;10.230;2022-09-23T17:30:17;9.23;;;5.55;;
45764;SDS011;31474;45.332;10.230;2022-09-23T17:32:43;11.32;;;5.28;;
45764;SDS011;31474;45.332;10.230;2022-09-23T17:35:09;10.00;;;6.03;;
45764;SDS011;31474;45.332;10.230;2022-09-23T17:37:37;22.27;;;5.95;;
45764;SDS011;31474;45.332;10.230;2022-09-23T17:40:03;10.13;;;5.30;;
45764;SDS011;31474;45.332;10.230;2022-09-23T17:42:29;7.97;;;5.00;;
45764;SDS011;31474;45.332;10.230;2022-09-23T17:44:55;8.10;;;5.10;;
45764;SDS011;31474;45.332;10.230;2022-09-23T17:47:22;15.60;;;5.13;;
45764;SDS011;31474;45.332;10.230;2022-09-23T17:53:09;8.65;;;5.22;;
45764;SDS011;31474;45.332;10.230;2022-09-23T17:55:35;8.65;;;5.05;;
45764;SDS011;31474;45.332;10.230;2022-09-23T17:58:01;9.65;;;5.55;;
45764;SDS011;31474;45.332;10.230;2022-09-23T18:00:26;10.07;;;5.07;;
45764;SDS011;31474;45.332;10.230;2022-09-23T18:02:52;9.38;;;5.22;;
45764;SDS011;31474;45.332;10.230;2022-09-23T18:05:17;13.77;;;5.70;;
45764;SDS011;31474;45.332;10.230;2022-09-23T18:07:43;8.63;;;5.00;;
45764;SDS011;31474;45.332;10.230;2022-09-23T18:10:09;12.50;;;6.05;;
45764;SDS011;31474;45.332;10.230;2022-09-23T18:12:34;10.88;;;5.78;;